sensor_id;sensor_type;location;lat;lon;timestamp;P1;durP1;ratioP1;P2;durP2;ratioP2
37787;SDS011;23627;53.302;-6.362;2023-11-19T00:00:30;10.80;;;2.00;;
37787;SDS011;23627;53.302;-6.362;2023-11-19T00:02:56;12.40;;;2.13;;
37787;SDS011;23627;53.302;-6.362;2023-11-19T00:05:22;11.88;;;2.05;;
37787;SDS011;23627;53.302;-6.362;2023-11-19T00:07:48;12.05;;;2.10;;
37787;SDS011;23627;53.302;-6.362;2023-11-19T00:10:14;12.20;;;2.30;;
37787;SDS011;23627;53.302;-6.362;2023-11-19T00:12:44;10.18;;;2.25;;
37787;SDS011;23627;53.302;-6.362;2023-11-19T00:15:11;8.95;;;1.85;;
37787;SDS011;23627;53.302;-6.362;2023-11-19T00:17:38;13.13;;;2.30;;
37787;SDS011;23627;53.302;-6.362;2023-11-19T00:20:10;14.15;;;2.53;;
37787;SDS011;23627;53.302;-6.362;2023-11-19T00:22:36;10.05;;;2.20;;
37787;SDS011;23627;53.302;-6.362;2023-11-19T00:25:02;11.02;;;1.90;;
37787;SDS011;23627;53.302;-6.362;2023-11-19T00:27:28;12.60;;;2.10;;
37787;SDS011;23627;53.302;-6.362;2023-11-19T00:29:54;12.63;;;2.15;;
37787;SDS011;23627;53.302;-6.362;2023-11-19T00:32:20;9.40;;;1.65;;
37787;SDS011;23627;53.302;-6.362;2023-11-19T00:34:46;12.07;;;2.40;;
37787;SDS011;23627;53.302;-6.362;2023-11-19T00:37:13;14.32;;;2.10;;
37787;SDS011;23627;53.302;-6.362;2023-11-19T00:39:40;9.02;;;1.73;;
37787;SDS011;23627;53.302;-6.362;2023-11-19T00:42:06;11.63;;;2.10;;
37787;SDS011;23627;53.302;-6.362;2023-11-19T00:44:32;9.93;;;2.33;;
37787;SDS011;23627;53.302;-6.362;2023-11-19T00:46:57;13.77;;;2.67;;
37787;SDS011;23627;53.302;-6.362;2023-11-19T00:49:25;9.88;;;2.20;;
37787;SDS011;23627;53.302;-6.362;2023-11-19T00:51:50;9.75;;;2.28;;
37787;SDS011;23627;53.302;-6.362;2023-11-19T00:54:16;13.82;;;2.65;;
37787;SDS011;23627;53.302;-6.362;2023-11-19T00:56:42;12.40;;;2.33;;
37787;SDS011;23627;53.302;-6.362;2023-11-19T00:59:08;10.77;;;1.90;;
37787;SDS011;23627;53.302;-6.362;2023-11-19T01:01:33;11.45;;;2.15;;
37787;SDS011;23627;53.302;-6.362;2023-11-19T01:03:59;9.80;;;2.10;;
37787;SDS011;23627;53.302;-6.362;2023-11-19T01:06:28;13.40;;;2.53;;
37787;SDS011;23627;53.302;-6.362;2023-11-19T01:08:55;14.45;;;1.80;;
37787;SDS011;23627;53.302;-6.362;2023-11-19T01:11:25;11.45;;;2.10;;
37787;SDS011;23627;53.302;-6.362;2023-11-19T01:13:51;10.90;;;2.08;;
37787;SDS011;23627;53.302;-6.362;2023-11-19T01:16:17;9.40;;;2.03;;
37787;SDS011;23627;53.302;-6.362;2023-11-19T01:18:44;11.80;;;2.25;;
37787;SDS011;23627;53.302;-6.362;2023-11-19T01:21:12;11.50;;;2.03;;
37787;SDS011;23627;53.302;-6.362;2023-11-19T01:23:39;10.25;;;1.92;;
37787;SDS011;23627;53.302;-6.362;2023-11-19T01:26:05;11.38;;;2.00;;
37787;SDS011;23627;53.302;-6.362;2023-11-19T01:28:31;10.07;;;2.03;;
37787;SDS011;23627;53.302;-6.362;2023-11-19T01:30:57;8.27;;;1.77;;
37787;SDS011;23627;53.302;-6.362;2023-11-19T01:33:22;8.88;;;1.73;;
37787;SDS011;23627;53.302;-6.362;2023-11-19T01:35:48;9.23;;;1.45;;
37787;SDS011;23627;53.302;-6.362;2023-11-19T01:38:14;9.80;;;2.00;;
37787;SDS011;23627;53.302;-6.362;2023-11-19T01:40:39;7.25;;;1.65;;
37787;SDS011;23627;53.302;-6.362;2023-11-19T01:43:05;9.38;;;1.92;;
37787;SDS011;23627;53.302;-6.362;2023-11-19T01:45:31;11.88;;;1.92;;
37787;SDS011;23627;53.302;-6.362;2023-11-19T01:47:59;9.20;;;1.80;;
37787;SDS011;23627;53.302;-6.362;2023-11-19T01:50:29;9.57;;;1.80;;
37787;SDS011;23627;53.302;-6.362;2023-11-19T01:52:55;10.35;;;1.85;;
37787;SDS011;23627;53.302;-6.362;2023-11-19T01:55:23;7.60;;;1.58;;
37787;SDS011;23627;53.302;-6.362;2023-11-19T01:57:50;10.70;;;1.58;;
37787;SDS011;23627;53.302;-6.362;2023-11-19T02:00:17;9.27;;;1.60;;
37787;SDS011;23627;53.302;-6.362;2023-11-19T02:02:44;13.10;;;1.70;;
37787;SDS011;23627;53.302;-6.362;2023-11-19T02:05:12;10.80;;;1.83;;
37787;SDS011;23627;53.302;-6.362;2023-11-19T02:07:38;10.13;;;1.58;;
37787;SDS011;23627;53.302;-6.362;2023-11-19T02:10:05;9.52;;;1.70;;
37787;SDS011;23627;53.302;-6.362;2023-11-19T02:12:37;5.30;;;1.27;;
37787;SDS011;23627;53.302;-6.362;2023-11-19T02:15:07;10.40;;;2.03;;
37787;SDS011;23627;53.302;-6.362;2023-11-19T02:17:34;8.77;;;1.40;;
37787;SDS011;23627;53.302;-6.362;2023-11-19T02:20:00;10.80;;;1.52;;
37787;SDS011;23627;53.302;-6.362;2023-11-19T02:22:25;9.05;;;1.70;;
37787;SDS011;23627;53.302;-6.362;2023-11-19T02:24:53;11.70;;;2.13;;
37787;SDS011;23627;53.302;-6.362;2023-11-19T02:27:28;9.10;;;1.42;;
37787;SDS011;23627;53.302;-6.362;2023-11-19T02:30:12;9.77;;;1.98;;
37787;SDS011;23627;53.302;-6.362;2023-11-19T02:32:41;9.73;;;1.90;;
37787;SDS011;23627;53.302;-6.362;2023-11-19T02:35:07;7.15;;;1.27;;
37787;SDS011;23627;53.302;-6.362;2023-11-19T02:37:37;8.77;;;1.40;;
37787;SDS011;23627;53.302;-6.362;2023-11-19T02:40:04;8.95;;;1.52;;
37787;SDS011;23627;53.302;-6.362;2023-11-19T02:42:33;9.82;;;1.70;;
37787;SDS011;23627;53.302;-6.362;2023-11-19T02:44:59;9.57;;;1.60;;
37787;SDS011;23627;53.302;-6.362;2023-11-19T02:47:25;8.90;;;1.38;;
37787;SDS011;23627;53.302;-6.362;2023-11-19T02:49:50;6.82;;;1.40;;
37787;SDS011;23627;53.302;-6.362;2023-11-19T02:52:18;10.82;;;1.70;;
37787;SDS011;23627;53.302;-6.362;2023-11-19T02:54:44;5.80;;;1.40;;
37787;SDS011;23627;53.302;-6.362;2023-11-19T02:57:10;9.02;;;1.80;;
37787;SDS011;23627;53.302;-6.362;2023-11-19T02:59:38;10.90;;;1.48;;
37787;SDS011;23627;53.302;-6.362;2023-11-19T03:02:08;7.07;;;1.50;;
37787;SDS011;23627;53.302;-6.362;2023-11-19T03:04:39;8.18;;;1.60;;
37787;SDS011;23627;53.302;-6.362;2023-11-19T03:07:05;8.13;;;1.45;;
37787;SDS011;23627;53.302;-6.362;2023-11-19T03:09:34;11.25;;;1.88;;
37787;SDS011;23627;53.302;-6.362;2023-11-19T03:12:00;9.35;;;2.25;;
37787;SDS011;23627;53.302;-6.362;2023-11-19T03:14:27;10.20;;;1.67;;
37787;SDS011;23627;53.302;-6.362;2023-11-19T03:16:53;10.77;;;1.60;;
37787;SDS011;23627;53.302;-6.362;2023-11-19T03:19:18;11.52;;;2.08;;
37787;SDS011;23627;53.302;-6.362;2023-11-19T03:21:44;11.18;;;2.00;;
37787;SDS011;23627;53.302;-6.362;2023-11-19T03:24:10;7.63;;;1.75;;
37787;SDS011;23627;53.302;-6.362;2023-11-19T03:26:39;6.28;;;1.50;;
37787;SDS011;23627;53.302;-6.362;2023-11-19T03:29:05;9.18;;;1.42;;
37787;SDS011;23627;53.302;-6.362;2023-11-19T03:31:30;12.77;;;1.77;;
37787;SDS011;23627;53.302;-6.362;2023-11-19T03:33:56;8.93;;;1.67;;
37787;SDS011;23627;53.302;-6.362;2023-11-19T03:36:22;7.88;;;1.80;;
37787;SDS011;23627;53.302;-6.362;2023-11-19T03:38:49;11.73;;;2.08;;
37787;SDS011;23627;53.302;-6.362;2023-11-19T03:41:15;10.07;;;2.10;;
37787;SDS011;23627;53.302;-6.362;2023-11-19T03:43:42;7.40;;;1.70;;
37787;SDS011;23627;53.302;-6.362;2023-11-19T03:46:20;5.90;;;1.35;;
37787;SDS011;23627;53.302;-6.362;2023-11-19T03:48:46;7.53;;;1.20;;
37787;SDS011;23627;53.302;-6.362;2023-11-19T03:51:15;8.88;;;1.70;;
37787;SDS011;23627;53.302;-6.362;2023-11-19T03:53:42;7.40;;;1.55;;
37787;SDS011;23627;53.302;-6.362;2023-11-19T03:56:09;8.65;;;1.63;;
37787;SDS011;23627;53.302;-6.362;2023-11-19T03:58:36;9.18;;;1.60;;
37787;SDS011;23627;53.302;-6.362;2023-11-19T04:01:03;9.77;;;1.55;;
37787;SDS011;23627;53.302;-6.362;2023-11-19T04:03:29;7.70;;;1.23;;
37787;SDS011;23627;53.302;-6.362;2023-11-19T04:05:55;9.38;;;1.55;;
37787;SDS011;23627;53.302;-6.362;2023-11-19T04:08:21;7.30;;;1.10;;
37787;SDS011;23627;53.302;-6.362;2023-11-19T04:10:47;9.20;;;1.48;;
37787;SDS011;23627;53.302;-6.362;2023-11-19T04:13:13;7.85;;;1.55;;
37787;SDS011;23627;53.302;-6.362;2023-11-19T04:15:39;6.50;;;1.20;;
37787;SDS011;23627;53.302;-6.362;2023-11-19T04:18:04;8.63;;;1.65;;
37787;SDS011;23627;53.302;-6.362;2023-11-19T04:20:30;8.55;;;1.73;;
37787;SDS011;23627;53.302;-6.362;2023-11-19T04:22:56;8.10;;;1.00;;
37787;SDS011;23627;53.302;-6.362;2023-11-19T04:25:22;8.77;;;1.35;;
37787;SDS011;23627;53.302;-6.362;2023-11-19T04:27:51;6.57;;;1.05;;
37787;SDS011;23627;53.302;-6.362;2023-11-19T04:30:17;6.63;;;1.33;;
37787;SDS011;23627;53.302;-6.362;2023-11-19T04:32:43;6.68;;;1.10;;
37787;SDS011;23627;53.302;-6.362;2023-11-19T04:35:09;5.68;;;1.45;;
37787;SDS011;23627;53.302;-6.362;2023-11-19T04:37:35;9.52;;;1.73;;
37787;SDS011;23627;53.302;-6.362;2023-11-19T04:40:02;7.65;;;1.30;;
37787;SDS011;23627;53.302;-6.362;2023-11-19T04:42:28;6.57;;;1.30;;
37787;SDS011;23627;53.302;-6.362;2023-11-19T04:44:54;6.57;;;1.15;;
37787;SDS011;23627;53.302;-6.362;2023-11-19T04:47:20;7.82;;;1.70;;
37787;SDS011;23627;53.302;-6.362;2023-11-19T04:49:46;4.65;;;0.95;;
37787;SDS011;23627;53.302;-6.362;2023-11-19T04:52:12;7.43;;;1.08;;
37787;SDS011;23627;53.302;-6.362;2023-11-19T04:54:44;8.45;;;1.20;;
37787;SDS011;23627;53.302;-6.362;2023-11-19T04:57:10;5.15;;;1.17;;
37787;SDS011;23627;53.302;-6.362;2023-11-19T04:59:36;6.05;;;1.27;;
37787;SDS011;23627;53.302;-6.362;2023-11-19T05:02:02;7.90;;;1.27;;
37787;SDS011;23627;53.302;-6.362;2023-11-19T05:04:29;6.70;;;1.20;;
37787;SDS011;23627;53.302;-6.362;2023-11-19T05:06:55;4.63;;;1.17;;
37787;SDS011;23627;53.302;-6.362;2023-11-19T05:09:20;4.88;;;1.20;;
37787;SDS011;23627;53.302;-6.362;2023-11-19T05:11:46;8.32;;;1.08;;
37787;SDS011;23627;53.302;-6.362;2023-11-19T05:14:13;8.30;;;1.10;;
37787;SDS011;23627;53.302;-6.362;2023-11-19T05:16:39;9.80;;;1.05;;
37787;SDS011;23627;53.302;-6.362;2023-11-19T05:19:05;7.32;;;1.20;;
37787;SDS011;23627;53.302;-6.362;2023-11-19T05:21:32;9.88;;;1.35;;
37787;SDS011;23627;53.302;-6.362;2023-11-19T05:23:58;5.38;;;1.00;;
37787;SDS011;23627;53.302;-6.362;2023-11-19T05:26:24;4.63;;;1.00;;
37787;SDS011;23627;53.302;-6.362;2023-11-19T05:28:51;6.72;;;1.10;;
37787;SDS011;23627;53.302;-6.362;2023-11-19T05:31:17;6.47;;;1.00;;
37787;SDS011;23627;53.302;-6.362;2023-11-19T05:33:43;5.70;;;0.82;;
37787;SDS011;23627;53.302;-6.362;2023-11-19T05:36:10;7.55;;;1.30;;
37787;SDS011;23627;53.302;-6.362;2023-11-19T05:38:37;6.22;;;1.00;;
37787;SDS011;23627;53.302;-6.362;2023-11-19T05:41:04;5.80;;;1.05;;
37787;SDS011;23627;53.302;-6.362;2023-11-19T05:43:30;6.13;;;1.42;;
37787;SDS011;23627;53.302;-6.362;2023-11-19T05:45:56;7.32;;;1.00;;
37787;SDS011;23627;53.302;-6.362;2023-11-19T05:48:22;5.20;;;0.98;;
37787;SDS011;23627;53.302;-6.362;2023-11-19T05:50:48;6.57;;;0.88;;
37787;SDS011;23627;53.302;-6.362;2023-11-19T05:53:15;7.05;;;1.33;;
37787;SDS011;23627;53.302;-6.362;2023-11-19T05:55:41;6.40;;;0.80;;
37787;SDS011;23627;53.302;-6.362;2023-11-19T05:58:29;5.00;;;0.80;;
37787;SDS011;23627;53.302;-6.362;2023-11-19T06:00:55;4.15;;;0.80;;
37787;SDS011;23627;53.302;-6.362;2023-11-19T06:03:21;3.40;;;0.70;;
37787;SDS011;23627;53.302;-6.362;2023-11-19T06:05:48;6.10;;;0.70;;
37787;SDS011;23627;53.302;-6.362;2023-11-19T06:08:14;6.70;;;1.15;;
37787;SDS011;23627;53.302;-6.362;2023-11-19T06:10:41;3.03;;;1.10;;
37787;SDS011;23627;53.302;-6.362;2023-11-19T06:13:07;4.43;;;0.85;;
37787;SDS011;23627;53.302;-6.362;2023-11-19T06:15:35;6.25;;;0.82;;
37787;SDS011;23627;53.302;-6.362;2023-11-19T06:18:01;4.80;;;0.80;;
37787;SDS011;23627;53.302;-6.362;2023-11-19T06:20:32;4.18;;;0.70;;
37787;SDS011;23627;53.302;-6.362;2023-11-19T06:22:58;3.55;;;0.80;;
37787;SDS011;23627;53.302;-6.362;2023-11-19T06:25:24;4.05;;;0.65;;
37787;SDS011;23627;53.302;-6.362;2023-11-19T06:27:50;3.05;;;0.60;;
37787;SDS011;23627;53.302;-6.362;2023-11-19T06:30:17;5.47;;;0.90;;
37787;SDS011;23627;53.302;-6.362;2023-11-19T06:32:42;5.22;;;0.57;;
37787;SDS011;23627;53.302;-6.362;2023-11-19T06:35:08;2.88;;;0.55;;
37787;SDS011;23627;53.302;-6.362;2023-11-19T06:37:38;4.22;;;0.77;;
37787;SDS011;23627;53.302;-6.362;2023-11-19T06:40:05;3.85;;;0.82;;
37787;SDS011;23627;53.302;-6.362;2023-11-19T06:42:31;3.83;;;0.60;;
37787;SDS011;23627;53.302;-6.362;2023-11-19T06:44:57;4.50;;;0.57;;
37787;SDS011;23627;53.302;-6.362;2023-11-19T06:47:27;4.22;;;0.65;;
37787;SDS011;23627;53.302;-6.362;2023-11-19T06:49:53;4.00;;;0.68;;
37787;SDS011;23627;53.302;-6.362;2023-11-19T06:52:19;7.50;;;1.00;;
37787;SDS011;23627;53.302;-6.362;2023-11-19T06:54:45;4.68;;;0.90;;
37787;SDS011;23627;53.302;-6.362;2023-11-19T06:57:11;4.43;;;0.60;;
37787;SDS011;23627;53.302;-6.362;2023-11-19T06:59:37;3.67;;;0.65;;
37787;SDS011;23627;53.302;-6.362;2023-11-19T07:02:03;4.82;;;0.80;;
37787;SDS011;23627;53.302;-6.362;2023-11-19T07:04:30;5.90;;;1.10;;
37787;SDS011;23627;53.302;-6.362;2023-11-19T07:06:56;4.00;;;1.00;;
37787;SDS011;23627;53.302;-6.362;2023-11-19T07:09:22;6.93;;;1.15;;
37787;SDS011;23627;53.302;-6.362;2023-11-19T07:11:48;5.78;;;0.90;;
37787;SDS011;23627;53.302;-6.362;2023-11-19T07:14:17;5.38;;;1.38;;
37787;SDS011;23627;53.302;-6.362;2023-11-19T07:16:43;2.90;;;0.77;;
37787;SDS011;23627;53.302;-6.362;2023-11-19T07:19:11;5.43;;;0.70;;
37787;SDS011;23627;53.302;-6.362;2023-11-19T07:21:37;4.93;;;0.80;;
37787;SDS011;23627;53.302;-6.362;2023-11-19T07:24:09;5.25;;;1.08;;
37787;SDS011;23627;53.302;-6.362;2023-11-19T07:26:35;4.03;;;0.75;;
37787;SDS011;23627;53.302;-6.362;2023-11-19T07:29:02;2.63;;;0.82;;
37787;SDS011;23627;53.302;-6.362;2023-11-19T07:31:28;5.97;;;0.80;;
37787;SDS011;23627;53.302;-6.362;2023-11-19T07:33:54;5.05;;;0.60;;
37787;SDS011;23627;53.302;-6.362;2023-11-19T07:36:19;4.50;;;0.88;;
37787;SDS011;23627;53.302;-6.362;2023-11-19T07:38:45;4.80;;;0.75;;
37787;SDS011;23627;53.302;-6.362;2023-11-19T07:41:12;3.75;;;0.63;;
37787;SDS011;23627;53.302;-6.362;2023-11-19T07:43:44;4.70;;;0.70;;
37787;SDS011;23627;53.302;-6.362;2023-11-19T07:48:40;2.78;;;0.90;;
37787;SDS011;23627;53.302;-6.362;2023-11-19T07:51:07;4.28;;;0.82;;
37787;SDS011;23627;53.302;-6.362;2023-11-19T07:53:33;3.17;;;0.40;;
37787;SDS011;23627;53.302;-6.362;2023-11-19T07:55:59;3.10;;;0.63;;
37787;SDS011;23627;53.302;-6.362;2023-11-19T07:58:26;4.18;;;0.65;;
37787;SDS011;23627;53.302;-6.362;2023-11-19T08:00:51;3.92;;;0.60;;
37787;SDS011;23627;53.302;-6.362;2023-11-19T08:03:17;1.48;;;0.43;;
37787;SDS011;23627;53.302;-6.362;2023-11-19T08:05:47;4.00;;;0.43;;
37787;SDS011;23627;53.302;-6.362;2023-11-19T08:08:13;2.33;;;0.55;;
37787;SDS011;23627;53.302;-6.362;2023-11-19T08:10:39;2.42;;;0.47;;
37787;SDS011;23627;53.302;-6.362;2023-11-19T08:13:05;2.05;;;0.40;;
37787;SDS011;23627;53.302;-6.362;2023-11-19T08:15:32;2.25;;;0.43;;
37787;SDS011;23627;53.302;-6.362;2023-11-19T08:17:58;2.42;;;0.30;;
37787;SDS011;23627;53.302;-6.362;2023-11-19T08:20:23;4.25;;;0.90;;
37787;SDS011;23627;53.302;-6.362;2023-11-19T08:22:49;4.20;;;0.40;;
37787;SDS011;23627;53.302;-6.362;2023-11-19T08:25:15;1.65;;;0.30;;
37787;SDS011;23627;53.302;-6.362;2023-11-19T08:27:41;1.92;;;0.38;;
37787;SDS011;23627;53.302;-6.362;2023-11-19T08:30:08;2.13;;;0.40;;
37787;SDS011;23627;53.302;-6.362;2023-11-19T08:32:34;2.70;;;0.35;;
37787;SDS011;23627;53.302;-6.362;2023-11-19T08:35:00;1.42;;;0.28;;
37787;SDS011;23627;53.302;-6.362;2023-11-19T08:37:25;2.00;;;0.30;;
37787;SDS011;23627;53.302;-6.362;2023-11-19T08:39:52;1.02;;;0.20;;
37787;SDS011;23627;53.302;-6.362;2023-11-19T08:42:18;0.75;;;0.20;;
37787;SDS011;23627;53.302;-6.362;2023-11-19T08:44:44;1.27;;;0.35;;
37787;SDS011;23627;53.302;-6.362;2023-11-19T08:47:15;1.95;;;0.28;;
37787;SDS011;23627;53.302;-6.362;2023-11-19T08:49:44;0.93;;;0.10;;
37787;SDS011;23627;53.302;-6.362;2023-11-19T08:52:10;1.95;;;0.28;;
37787;SDS011;23627;53.302;-6.362;2023-11-19T08:54:36;1.45;;;0.15;;
37787;SDS011;23627;53.302;-6.362;2023-11-19T08:57:02;0.70;;;0.10;;
37787;SDS011;23627;53.302;-6.362;2023-11-19T08:59:29;0.50;;;0.10;;
37787;SDS011;23627;53.302;-6.362;2023-11-19T09:01:55;0.55;;;0.10;;
37787;SDS011;23627;53.302;-6.362;2023-11-19T09:04:21;1.10;;;0.13;;
37787;SDS011;23627;53.302;-6.362;2023-11-19T09:06:49;0.50;;;0.20;;
37787;SDS011;23627;53.302;-6.362;2023-11-19T09:09:16;0.73;;;0.10;;
37787;SDS011;23627;53.302;-6.362;2023-11-19T09:11:41;0.65;;;0.10;;
37787;SDS011;23627;53.302;-6.362;2023-11-19T09:14:07;0.25;;;0.00;;
37787;SDS011;23627;53.302;-6.362;2023-11-19T09:16:33;0.82;;;0.10;;
37787;SDS011;23627;53.302;-6.362;2023-11-19T09:18:59;0.10;;;0.00;;
37787;SDS011;23627;53.302;-6.362;2023-11-19T09:21:26;0.40;;;0.00;;
37787;SDS011;23627;53.302;-6.362;2023-11-19T09:23:51;0.45;;;0.05;;
37787;SDS011;23627;53.302;-6.362;2023-11-19T09:26:19;0.98;;;0.00;;
37787;SDS011;23627;53.302;-6.362;2023-11-19T09:28:44;0.32;;;0.00;;
37787;SDS011;23627;53.302;-6.362;2023-11-19T09:31:17;0.82;;;0.10;;
37787;SDS011;23627;53.302;-6.362;2023-11-19T09:33:43;0.20;;;0.00;;
37787;SDS011;23627;53.302;-6.362;2023-11-19T09:36:10;0.25;;;0.00;;
37787;SDS011;23627;53.302;-6.362;2023-11-19T09:38:39;1.80;;;0.10;;
37787;SDS011;23627;53.302;-6.362;2023-11-19T09:41:06;0.57;;;0.00;;
37787;SDS011;23627;53.302;-6.362;2023-11-19T09:43:37;0.95;;;0.10;;
37787;SDS011;23627;53.302;-6.362;2023-11-19T09:46:06;0.25;;;0.00;;
37787;SDS011;23627;53.302;-6.362;2023-11-19T09:48:36;0.00;;;0.00;;
37787;SDS011;23627;53.302;-6.362;2023-11-19T09:51:06;0.40;;;0.00;;
37787;SDS011;23627;53.302;-6.362;2023-11-19T09:53:33;0.50;;;0.10;;
37787;SDS011;23627;53.302;-6.362;2023-11-19T09:56:01;0.25;;;0.10;;
37787;SDS011;23627;53.302;-6.362;2023-11-19T09:58:28;0.93;;;0.20;;
37787;SDS011;23627;53.302;-6.362;2023-11-19T10:00:56;0.32;;;0.00;;
37787;SDS011;23627;53.302;-6.362;2023-11-19T10:03:24;0.10;;;0.08;;
37787;SDS011;23627;53.302;-6.362;2023-11-19T10:05:52;0.05;;;0.00;;
37787;SDS011;23627;53.302;-6.362;2023-11-19T10:08:19;1.73;;;0.10;;
37787;SDS011;23627;53.302;-6.362;2023-11-19T10:10:45;0.20;;;0.08;;
37787;SDS011;23627;53.302;-6.362;2023-11-19T10:13:12;0.70;;;0.20;;
37787;SDS011;23627;53.302;-6.362;2023-11-19T10:15:39;0.20;;;0.10;;
37787;SDS011;23627;53.302;-6.362;2023-11-19T10:18:06;0.63;;;0.10;;
37787;SDS011;23627;53.302;-6.362;2023-11-19T10:20:41;0.08;;;0.00;;
37787;SDS011;23627;53.302;-6.362;2023-11-19T10:23:08;1.58;;;0.30;;
37787;SDS011;23627;53.302;-6.362;2023-11-19T10:25:34;1.02;;;0.20;;
37787;SDS011;23627;53.302;-6.362;2023-11-19T10:28:00;0.32;;;0.10;;
37787;SDS011;23627;53.302;-6.362;2023-11-19T10:30:26;1.20;;;0.10;;
37787;SDS011;23627;53.302;-6.362;2023-11-19T10:33:06;1.02;;;0.25;;
37787;SDS011;23627;53.302;-6.362;2023-11-19T10:35:34;1.42;;;0.20;;
37787;SDS011;23627;53.302;-6.362;2023-11-19T10:38:03;1.20;;;0.20;;
37787;SDS011;23627;53.302;-6.362;2023-11-19T10:40:40;1.38;;;0.20;;
37787;SDS011;23627;53.302;-6.362;2023-11-19T10:43:06;0.57;;;0.10;;
37787;SDS011;23627;53.302;-6.362;2023-11-19T10:45:33;1.23;;;0.20;;
37787;SDS011;23627;53.302;-6.362;2023-11-19T10:48:07;0.82;;;0.40;;
37787;SDS011;23627;53.302;-6.362;2023-11-19T10:50:33;0.60;;;0.20;;
37787;SDS011;23627;53.302;-6.362;2023-11-19T10:53:01;1.08;;;0.10;;
37787;SDS011;23627;53.302;-6.362;2023-11-19T10:55:29;1.13;;;0.20;;
37787;SDS011;23627;53.302;-6.362;2023-11-19T10:57:59;0.80;;;0.20;;
37787;SDS011;23627;53.302;-6.362;2023-11-19T11:00:29;0.93;;;0.17;;
37787;SDS011;23627;53.302;-6.362;2023-11-19T11:03:03;0.45;;;0.20;;
37787;SDS011;23627;53.302;-6.362;2023-11-19T11:05:35;1.30;;;0.10;;
37787;SDS011;23627;53.302;-6.362;2023-11-19T11:08:04;0.47;;;0.10;;
37787;SDS011;23627;53.302;-6.362;2023-11-19T11:10:32;0.85;;;0.20;;
37787;SDS011;23627;53.302;-6.362;2023-11-19T11:13:03;1.17;;;0.10;;
37787;SDS011;23627;53.302;-6.362;2023-11-19T11:15:30;1.30;;;0.43;;
37787;SDS011;23627;53.302;-6.362;2023-11-19T11:18:02;0.47;;;0.10;;
37787;SDS011;23627;53.302;-6.362;2023-11-19T11:20:32;1.27;;;0.60;;
37787;SDS011;23627;53.302;-6.362;2023-11-19T11:23:16;0.47;;;0.20;;
37787;SDS011;23627;53.302;-6.362;2023-11-19T11:29:03;0.50;;;0.10;;
37787;SDS011;23627;53.302;-6.362;2023-11-19T11:34:19;1.40;;;0.20;;
37787;SDS011;23627;53.302;-6.362;2023-11-19T11:39:28;0.57;;;0.20;;
37787;SDS011;23627;53.302;-6.362;2023-11-19T11:42:38;1.00;;;0.30;;
37787;SDS011;23627;53.302;-6.362;2023-11-19T11:50:19;0.75;;;0.22;;
37787;SDS011;23627;53.302;-6.362;2023-11-19T11:55:24;0.50;;;0.20;;
37787;SDS011;23627;53.302;-6.362;2023-11-19T11:57:50;0.45;;;0.10;;
37787;SDS011;23627;53.302;-6.362;2023-11-19T12:00:22;0.80;;;0.20;;
37787;SDS011;23627;53.302;-6.362;2023-11-19T12:02:51;0.70;;;0.20;;
37787;SDS011;23627;53.302;-6.362;2023-11-19T12:05:19;0.68;;;0.20;;
37787;SDS011;23627;53.302;-6.362;2023-11-19T12:07:55;0.38;;;0.10;;
37787;SDS011;23627;53.302;-6.362;2023-11-19T12:10:25;1.75;;;0.20;;
37787;SDS011;23627;53.302;-6.362;2023-11-19T12:12:57;0.75;;;0.20;;
37787;SDS011;23627;53.302;-6.362;2023-11-19T12:15:24;0.43;;;0.28;;
37787;SDS011;23627;53.302;-6.362;2023-11-19T12:17:52;0.52;;;0.20;;
37787;SDS011;23627;53.302;-6.362;2023-11-19T12:20:21;0.80;;;0.20;;
37787;SDS011;23627;53.302;-6.362;2023-11-19T12:22:51;0.40;;;0.20;;
37787;SDS011;23627;53.302;-6.362;2023-11-19T12:25:18;0.38;;;0.20;;
37787;SDS011;23627;53.302;-6.362;2023-11-19T12:27:49;0.52;;;0.20;;
37787;SDS011;23627;53.302;-6.362;2023-11-19T12:30:22;0.57;;;0.20;;
37787;SDS011;23627;53.302;-6.362;2023-11-19T12:32:49;0.43;;;0.20;;
37787;SDS011;23627;53.302;-6.362;2023-11-19T12:35:15;0.73;;;0.20;;
37787;SDS011;23627;53.302;-6.362;2023-11-19T12:40:14;0.32;;;0.10;;
37787;SDS011;23627;53.302;-6.362;2023-11-19T12:42:42;0.40;;;0.20;;
37787;SDS011;23627;53.302;-6.362;2023-11-19T12:45:08;1.13;;;0.20;;
37787;SDS011;23627;53.302;-6.362;2023-11-19T12:47:38;1.30;;;0.20;;
37787;SDS011;23627;53.302;-6.362;2023-11-19T12:50:05;0.90;;;0.20;;
37787;SDS011;23627;53.302;-6.362;2023-11-19T12:52:32;1.33;;;0.32;;
37787;SDS011;23627;53.302;-6.362;2023-11-19T12:54:59;1.65;;;0.40;;
37787;SDS011;23627;53.302;-6.362;2023-11-19T13:00:06;2.20;;;0.40;;
37787;SDS011;23627;53.302;-6.362;2023-11-19T13:02:52;2.58;;;0.50;;
37787;SDS011;23627;53.302;-6.362;2023-11-19T13:08:16;5.07;;;0.60;;
37787;SDS011;23627;53.302;-6.362;2023-11-19T13:11:00;3.25;;;0.60;;
37787;SDS011;23627;53.302;-6.362;2023-11-19T13:13:26;3.75;;;0.90;;
37787;SDS011;23627;53.302;-6.362;2023-11-19T13:15:51;4.68;;;1.13;;
37787;SDS011;23627;53.302;-6.362;2023-11-19T13:18:17;5.55;;;1.08;;
37787;SDS011;23627;53.302;-6.362;2023-11-19T13:20:43;6.40;;;1.00;;
37787;SDS011;23627;53.302;-6.362;2023-11-19T13:23:09;5.38;;;0.93;;
37787;SDS011;23627;53.302;-6.362;2023-11-19T13:25:35;6.30;;;1.05;;
37787;SDS011;23627;53.302;-6.362;2023-11-19T13:28:02;4.07;;;0.90;;
37787;SDS011;23627;53.302;-6.362;2023-11-19T13:30:28;6.70;;;1.08;;
37787;SDS011;23627;53.302;-6.362;2023-11-19T13:32:54;5.80;;;1.00;;
37787;SDS011;23627;53.302;-6.362;2023-11-19T13:35:21;6.25;;;0.95;;
37787;SDS011;23627;53.302;-6.362;2023-11-19T13:37:47;7.07;;;2.20;;
37787;SDS011;23627;53.302;-6.362;2023-11-19T13:40:13;6.82;;;1.08;;
37787;SDS011;23627;53.302;-6.362;2023-11-19T13:42:43;6.88;;;1.30;;
37787;SDS011;23627;53.302;-6.362;2023-11-19T13:45:13;6.90;;;1.45;;
37787;SDS011;23627;53.302;-6.362;2023-11-19T13:47:40;8.75;;;1.55;;
37787;SDS011;23627;53.302;-6.362;2023-11-19T13:50:10;6.40;;;1.48;;
37787;SDS011;23627;53.302;-6.362;2023-11-19T13:52:41;6.53;;;1.08;;
37787;SDS011;23627;53.302;-6.362;2023-11-19T13:55:09;4.78;;;1.10;;
37787;SDS011;23627;53.302;-6.362;2023-11-19T13:57:35;7.43;;;1.13;;
37787;SDS011;23627;53.302;-6.362;2023-11-19T14:00:11;6.38;;;1.23;;
37787;SDS011;23627;53.302;-6.362;2023-11-19T14:02:41;8.40;;;1.15;;
37787;SDS011;23627;53.302;-6.362;2023-11-19T14:05:08;6.82;;;1.10;;
37787;SDS011;23627;53.302;-6.362;2023-11-19T14:07:36;4.95;;;1.02;;
37787;SDS011;23627;53.302;-6.362;2023-11-19T14:10:02;7.82;;;1.20;;
37787;SDS011;23627;53.302;-6.362;2023-11-19T14:12:28;6.18;;;1.35;;
37787;SDS011;23627;53.302;-6.362;2023-11-19T14:14:53;5.88;;;1.35;;
37787;SDS011;23627;53.302;-6.362;2023-11-19T14:17:19;9.40;;;1.50;;
37787;SDS011;23627;53.302;-6.362;2023-11-19T14:19:45;4.05;;;1.00;;
37787;SDS011;23627;53.302;-6.362;2023-11-19T14:22:11;9.38;;;1.38;;
37787;SDS011;23627;53.302;-6.362;2023-11-19T14:24:37;5.47;;;1.02;;
37787;SDS011;23627;53.302;-6.362;2023-11-19T14:27:04;5.20;;;1.13;;
37787;SDS011;23627;53.302;-6.362;2023-11-19T14:29:30;7.57;;;1.20;;
37787;SDS011;23627;53.302;-6.362;2023-11-19T14:31:56;4.47;;;1.20;;
37787;SDS011;23627;53.302;-6.362;2023-11-19T14:34:23;4.50;;;1.50;;
37787;SDS011;23627;53.302;-6.362;2023-11-19T14:36:51;5.57;;;1.10;;
37787;SDS011;23627;53.302;-6.362;2023-11-19T14:39:17;6.03;;;1.50;;
37787;SDS011;23627;53.302;-6.362;2023-11-19T14:41:43;6.20;;;1.20;;
37787;SDS011;23627;53.302;-6.362;2023-11-19T14:44:11;8.77;;;1.42;;
37787;SDS011;23627;53.302;-6.362;2023-11-19T14:46:37;9.77;;;1.50;;
37787;SDS011;23627;53.302;-6.362;2023-11-19T14:49:03;6.40;;;1.30;;
37787;SDS011;23627;53.302;-6.362;2023-11-19T14:51:30;6.65;;;1.30;;
37787;SDS011;23627;53.302;-6.362;2023-11-19T14:53:57;8.35;;;1.30;;
37787;SDS011;23627;53.302;-6.362;2023-11-19T14:56:23;6.55;;;1.30;;
37787;SDS011;23627;53.302;-6.362;2023-11-19T14:58:48;6.85;;;1.60;;
37787;SDS011;23627;53.302;-6.362;2023-11-19T15:01:16;5.28;;;1.30;;